| time (UTC) | temp F | wind direction | speed MPH | gust MPH | rain 1hr in | rain 24hr in | rain mn in | humidity % | barometer mb |
| 20260904095604 | 73 | 150 | 2.0 | 4.0 | 0.00 | 0.00 | 0.00 | 98 | 1013.6 |
| 20260904094604 | 73 | 200 | 2.0 | 5.0 | 0.00 | 0.00 | 0.00 | 98 | 1014.0 |
| 20260904093603 | 73 | 234 | 2.0 | 4.0 | 0.00 | 0.00 | 0.00 | 97 | 1014.0 |
| 20260904093056 | 73 | 192 | 0.0 | 6.0 | 0.00 | 0.00 | 0.00 | 98 | 1014.0 |
| 20260904091606 | 73 | 222 | 3.0 | 4.0 | 0.00 | 0.00 | 0.00 | 98 | 1014.0 |
| 20260904090606 | 73 | 206 | 1.0 | 4.0 | 0.00 | 0.00 | 0.00 | 98 | 1014.0 |
| 20260904085609 | 73 | 216 | 0.0 | 4.0 | 0.00 | 0.00 | 0.00 | 98 | 1014.3 |
| 20260904085538 | 74 | 225 | 1.0 | 4.0 | 0.00 | 0.00 | 0.00 | 98 | 1014.3 |
| 20260904083607 | 74 | 214 | 0.0 | 4.0 | 0.00 | 0.00 | 0.00 | 98 | 1014.6 |
| 20260904083051 | 74 | 193 | 1.0 | 4.0 | 0.00 | 0.00 | 0.00 | 98 | 1014.0 |
| 20260904081608 | 74 | 215 | 3.0 | 4.0 | 0.00 | 0.00 | 0.00 | 98 | 1014.6 |
| 20260904080607 | 73 | 214 | 2.0 | 3.0 | 0.00 | 0.00 | 0.00 | 98 | 1014.3 |
| 20260904075611 | 73 | 194 | 1.0 | 4.0 | 0.00 | 0.00 | 0.00 | 98 | 1014.0 |
| 20260904075043 | 73 | 141 | 1.0 | 2.0 | 0.00 | 0.00 | 0.00 | 98 | 1014.0 |
| 20260904073606 | 73 | 176 | 1.0 | 2.0 | 0.00 | 0.00 | 0.00 | 98 | 1014.3 |
| 20260904072605 | 72 | 201 | 1.0 | 2.0 | 0.00 | 0.00 | 0.00 | 97 | 1014.0 |
| 20260904071604 | 72 | 196 | 0.0 | 2.0 | 0.00 | 0.00 | 0.00 | 97 | 1014.0 |
| 20260904071051 | 72 | 127 | 0.0 | 2.0 | 0.00 | 0.00 | 0.00 | 97 | 1014.0 |
| 20260904065602 | 72 | 190 | 1.0 | 2.0 | 0.00 | 0.00 | 0.00 | 97 | 1014.0 |
| 20260904065039 | 72 | 140 | 1.0 | 2.0 | 0.00 | 0.00 | 0.00 | 97 | 1013.6 |
| 20260904063600 | 73 | 138 | 1.0 | 2.0 | 0.00 | 0.00 | 0.00 | 97 | 1013.3 |
| 20260904062559 | 73 | 180 | 0.0 | 2.0 | 0.00 | 0.00 | 0.00 | 97 | 1013.6 |
| 20260904061558 | 72 | 139 | 1.0 | 2.0 | 0.00 | 0.00 | 0.00 | 97 | 1014.0 |
| 20260904060557 | 72 | 141 | 0.0 | 2.0 | 0.00 | 0.00 | 0.00 | 97 | 1013.6 |
| 20260904055556 | 72 | 152 | 2.0 | 2.0 | 0.00 | 0.00 | 0.00 | 97 | 1013.6 |
| 20260904055036 | 72 | 131 | 1.0 | 2.0 | 0.00 | 0.00 | 0.00 | 96 | 1014.0 |
| 20260904053555 | 73 | 180 | 0.0 | 2.0 | 0.00 | 0.00 | 0.00 | 96 | 1014.0 |
| 20260904052555 | 72 | 133 | 1.0 | 2.0 | 0.00 | 0.00 | 0.00 | 96 | 1014.0 |
| 20260904051549 | 72 | 134 | 0.0 | 2.0 | 0.00 | 0.00 | 0.00 | 96 | 1014.0 |
| 20260904050605 | 72 | 141 | 1.0 | 2.0 | 0.00 | 0.00 | 0.00 | 96 | 1014.6 |
| 20260904045550 | 72 | 146 | 1.0 | 2.0 | 0.00 | 0.00 | 0.00 | 95 | 1014.0 |
| 20260904044546 | 72 | 148 | 1.0 | 2.0 | 0.00 | 0.00 | 0.00 | 95 | 1014.0 |
| 20260904044024 | 72 | 132 | 2.0 | 3.0 | 0.00 | 0.00 | 0.00 | 95 | 1014.0 |
| 20260904042544 | 72 | 227 | 2.0 | 12.0 | 0.00 | 0.00 | 0.00 | 94 | 1014.6 |
| 20260904042111 | 74 | 230 | 3.0 | 10.0 | 0.00 | 0.00 | 0.00 | 92 | 1016.3 |
| 20260904040543 | 76 | 220 | 2.0 | 3.0 | 0.00 | 0.00 | 0.00 | 89 | 1015.0 |
| 20260904035546 | 76 | 235 | 1.0 | 2.0 | 0.00 | 0.00 | 0.00 | 89 | 1014.6 |
| 20260904034542 | 76 | 198 | 1.0 | 2.0 | 0.00 | 0.00 | 0.00 | 89 | 1015.0 |
| 20260904033542 | 76 | 139 | 1.0 | 2.0 | 0.00 | 0.00 | 0.00 | 89 | 1015.0 |
| 20260904032547 | 76 | 150 | 1.0 | 2.0 | 0.00 | 0.00 | 0.00 | 88 | 1015.0 |
| 20260904031543 | 76 | 152 | 0.0 | 1.0 | 0.00 | 0.00 | 0.00 | 88 | 1015.3 |
| 20260904030543 | 76 | 188 | 0.0 | 2.0 | 0.00 | 0.00 | 0.00 | 88 | 1015.0 |
| 20260904025557 | 77 | 142 | 0.0 | 2.0 | 0.00 | 0.00 | 0.00 | 87 | 1015.3 |
| 20260904025025 | 77 | 177 | 1.0 | 2.0 | 0.00 | 0.00 | 0.00 | 87 | 1015.3 |
| 20260904023543 | 76 | 200 | 1.0 | 2.0 | 0.00 | 0.00 | 0.00 | 88 | 1015.0 |
| 20260904022543 | 76 | 149 | 1.0 | 1.0 | 0.00 | 0.00 | 0.00 | 87 | 1015.0 |
| 20260904021542 | 77 | 147 | 0.0 | 1.0 | 0.00 | 0.00 | 0.00 | 86 | 1015.3 |
| 20260904020553 | 77 | 129 | 0.0 | 3.0 | 0.00 | 0.00 | 0.00 | 85 | 1015.0 |
| 20260904015535 | 78 | 140 | 0.0 | 3.0 | 0.00 | 0.00 | 0.00 | 85 | 1015.3 |
| 20260904014539 | 78 | 167 | 0.0 | 4.0 | 0.00 | 0.00 | 0.00 | 85 | 1015.3 |
| 20260904013543 | 78 | 196 | 0.0 | 3.0 | 0.00 | 0.00 | 0.00 | 85 | 1015.6 |
| 20260904012550 | 78 | 209 | 3.0 | 4.0 | 0.00 | 0.00 | 0.00 | 86 | 1015.6 |
| 20260904011532 | 78 | 177 | 1.0 | 4.0 | 0.00 | 0.00 | 0.00 | 86 | 1015.6 |
| 20260904010545 | 77 | 175 | 1.0 | 2.0 | 0.00 | 0.00 | 0.00 | 86 | 1015.6 |
| 20260904005531 | 78 | 180 | 0.0 | 2.0 | 0.00 | 0.00 | 0.00 | 85 | 1016.0 |
| 20260904004530 | 78 | 198 | 0.0 | 3.0 | 0.00 | 0.00 | 0.00 | 85 | 1016.0 |
| 20260904003532 | 78 | 200 | 0.0 | 2.0 | 0.00 | 0.00 | 0.00 | 85 | 1015.6 |
| 20260904002532 | 78 | 180 | 0.0 | 2.0 | 0.00 | 0.00 | 0.00 | 85 | 1015.6 |
| 20260904001524 | 78 | 174 | 1.0 | 2.0 | 0.00 | 0.00 | 0.00 | 84 | 1015.3 |
| 20260904001509 | 79 | 161 | 1.0 | 2.0 | 0.00 | 0.00 | 0.00 | 83 | 1015.3 |
| 20260903235526 | 79 | 145 | 0.0 | 3.0 | 0.00 | 0.00 | 0.00 | 82 | 1015.3 |
| 20260903234525 | 80 | 244 | 2.0 | 3.0 | 0.00 | 0.00 | 0.00 | 82 | 1015.3 |
| 20260903233539 | 80 | 205 | 1.0 | 4.0 | 0.00 | 0.00 | 0.00 | 82 | 1015.3 |
| 20260903232521 | 80 | 174 | 0.0 | 3.0 | 0.00 | 0.00 | 0.00 | 81 | 1015.3 |
| 20260903231518 | 81 | 185 | 1.0 | 3.0 | 0.00 | 0.00 | 0.00 | 80 | 1015.3 |
| 20260903230516 | 82 | 237 | 1.0 | 4.0 | 0.00 | 0.00 | 0.00 | 79 | 1015.0 |
| 20260903225955 | 82 | 214 | 2.0 | 6.0 | 0.00 | 0.00 | 0.00 | 78 | 1015.0 |
| 20260903224517 | 83 | 236 | 2.0 | 8.0 | 0.00 | 0.00 | 0.00 | 76 | 1014.6 |
| 20260903223515 | 86 | 250 | 2.0 | 7.0 | 0.00 | 0.00 | 0.00 | 71 | 1014.6 |
| 20260903222510 | 88 | 243 | 5.0 | 6.0 | 0.00 | 0.00 | 0.00 | 68 | 1015.0 |
| 20260903221513 | 88 | 212 | 2.0 | 6.0 | 0.00 | 0.00 | 0.00 | 68 | 1015.0 |
| 20260903220516 | 86 | 215 | 1.0 | 6.0 | 0.00 | 0.00 | 0.00 | 71 | 1015.0 |
| 20260903215517 | 86 | 224 | 5.0 | 9.0 | 0.00 | 0.00 | 0.00 | 71 | 1014.6 |
| 20260903214513 | 88 | 213 | 4.0 | 8.0 | 0.00 | 0.00 | 0.00 | 68 | 1015.0 |
| 20260903213514 | 88 | 216 | 3.0 | 12.0 | 0.00 | 0.00 | 0.00 | 68 | 1014.6 |
| 20260903212513 | 89 | 246 | 4.0 | 9.0 | 0.00 | 0.00 | 0.00 | 66 | 1014.6 |
| 20260903211526 | 90 | 200 | 3.0 | 9.0 | 0.00 | 0.00 | 0.00 | 65 | 1014.6 |
| 20260903210513 | 91 | 234 | 5.0 | 8.0 | 0.00 | 0.00 | 0.00 | 63 | 1014.6 |
| 20260903205510 | 91 | 245 | 4.0 | 6.0 | 0.00 | 0.00 | 0.00 | 63 | 1015.0 |
| 20260903204953 | 92 | 169 | 1.0 | 7.0 | 0.00 | 0.00 | 0.00 | 63 | 1014.6 |
| 20260903203518 | 92 | 262 | 2.0 | 8.0 | 0.00 | 0.00 | 0.00 | 62 | 1015.0 |
| 20260903202506 | 92 | 243 | 2.0 | 6.0 | 0.00 | 0.00 | 0.00 | 63 | 1015.0 |
| 20260903201502 | 91 | 232 | 2.0 | 10.0 | 0.00 | 0.00 | 0.00 | 63 | 1015.0 |
| 20260903200509 | 92 | 230 | 2.0 | 7.0 | 0.00 | 0.00 | 0.00 | 63 | 1015.3 |
| 20260903195459 | 93 | 229 | 6.0 | 6.0 | 0.00 | 0.00 | 0.00 | 62 | 1015.3 |
| 20260903194459 | 93 | 183 | 4.0 | 9.0 | 0.00 | 0.00 | 0.00 | 61 | 1015.0 |
| 20260903193943 | 95 | 232 | 5.0 | 6.0 | 0.00 | 0.00 | 0.00 | 59 | 1015.3 |
| 20260903192939 | 95 | 207 | 2.0 | 7.0 | 0.00 | 0.00 | 0.00 | 59 | 1015.6 |
| 20260903191501 | 94 | 265 | 2.0 | 7.0 | 0.00 | 0.00 | 0.00 | 60 | 1016.0 |
| 20260903190458 | 92 | 232 | 4.0 | 5.0 | 0.00 | 0.00 | 0.00 | 64 | 1016.0 |
| 20260903185453 | 91 | 211 | 5.0 | 7.0 | 0.00 | 0.00 | 0.00 | 63 | 1016.3 |
| 20260903184936 | 90 | 220 | 3.0 | 9.0 | 0.00 | 0.00 | 0.00 | 66 | 1016.3 |
| 20260903183509 | 90 | 233 | 0.0 | 6.0 | 0.00 | 0.00 | 0.00 | 67 | 1016.3 |
| 20260903182451 | 89 | 251 | 1.0 | 6.0 | 0.00 | 0.00 | 0.00 | 67 | 1016.3 |
| 20260903181509 | 88 | 268 | 2.0 | 6.0 | 0.00 | 0.00 | 0.00 | 68 | 1016.3 |
| 20260903180459 | 87 | 240 | 2.0 | 7.0 | 0.00 | 0.00 | 0.00 | 71 | 1016.0 |
| 20260903175453 | 86 | 247 | 3.0 | 7.0 | 0.00 | 0.00 | 0.00 | 71 | 1016.3 |
| 20260903174451 | 86 | 242 | 0.0 | 8.0 | 0.00 | 0.00 | 0.00 | 75 | 1016.7 |
| 20260903173456 | 85 | 255 | 2.0 | 6.0 | 0.00 | 0.00 | 0.00 | 76 | 1016.7 |
| 20260903172445 | 85 | 228 | 0.0 | 9.0 | 0.00 | 0.00 | 0.00 | 74 | 1016.7 |
| 20260903171445 | 84 | 222 | 2.0 | 9.0 | 0.00 | 0.00 | 0.00 | 75 | 1017.0 |
| 20260903170442 | 85 | 205 | 2.0 | 10.0 | 0.00 | 0.00 | 0.00 | 74 | 1017.0 |
| 20260903165440 | 85 | 224 | 4.0 | 9.0 | 0.00 | 0.00 | 0.00 | 75 | 1017.3 |
| 20260903164441 | 83 | 192 | 2.0 | 6.0 | 0.00 | 0.00 | 0.00 | 78 | 1017.3 |
| 20260903163443 | 83 | 210 | 2.0 | 8.0 | 0.00 | 0.00 | 0.00 | 79 | 1017.3 |
| 20260903162441 | 84 | 234 | 4.0 | 7.0 | 0.00 | 0.00 | 0.00 | 76 | 1018.0 |
| 20260903161440 | 83 | 349 | 0.0 | 6.0 | 0.00 | 0.00 | 0.00 | 81 | 1018.0 |
| 20260903160447 | 83 | 262 | 3.0 | 11.0 | 0.00 | 0.00 | 0.00 | 80 | 1018.0 |
| 20260903155442 | 83 | 210 | 8.0 | 9.0 | 0.00 | 0.00 | 0.00 | 79 | 1018.4 |
| 20260903154437 | 83 | 210 | 3.0 | 6.0 | 0.00 | 0.00 | 0.00 | 82 | 1018.0 |
| 20260903153431 | 81 | 189 | 1.0 | 7.0 | 0.00 | 0.00 | 0.00 | 84 | 1018.4 |
| 20260903152430 | 82 | 244 | 2.0 | 7.0 | 0.00 | 0.00 | 0.00 | 83 | 1018.4 |
| 20260903151439 | 82 | 188 | 1.0 | 6.0 | 0.00 | 0.00 | 0.00 | 84 | 1018.0 |
| 20260903150429 | 81 | 237 | 0.0 | 6.0 | 0.00 | 0.00 | 0.00 | 88 | 1018.0 |
| 20260903145408 | 79 | 171 | 3.0 | 8.0 | 0.00 | 0.00 | 0.00 | 87 | 1018.0 |
| 20260903144408 | 78 | 262 | 5.0 | 7.0 | 0.00 | 0.00 | 0.00 | 88 | 1017.7 |
| 20260903143407 | 78 | 236 | 0.0 | 5.0 | 0.00 | 0.00 | 0.00 | 93 | 1018.0 |
| 20260903142407 | 77 | 249 | 3.0 | 6.0 | 0.00 | 0.00 | 0.00 | 91 | 1018.0 |
| 20260903141408 | 77 | 219 | 5.0 | 7.0 | 0.00 | 0.00 | 0.00 | 94 | 1018.0 |
| 20260903140410 | 76 | 200 | 2.0 | 6.0 | 0.00 | 0.00 | 0.00 | 96 | 1018.0 |
| 20260903135912 | 76 | 196 | 2.0 | 6.0 | 0.00 | 0.00 | 0.00 | 97 | 1018.0 |
| 20260903134408 | 75 | 216 | 6.0 | 9.0 | 0.00 | 0.00 | 0.00 | 98 | 1017.7 |
| 20260903133412 | 74 | 148 | 2.0 | 6.0 | 0.00 | 0.00 | 0.00 | 98 | 1017.3 |
| 20260903132408 | 74 | 215 | 3.0 | 4.0 | 0.00 | 0.00 | 0.00 | 98 | 1017.3 |
| 20260903131409 | 73 | 215 | 4.0 | 6.0 | 0.00 | 0.00 | 0.00 | 98 | 1017.3 |
| 20260903130903 | 73 | 261 | 1.0 | 6.0 | 0.00 | 0.00 | 0.00 | 98 | 1017.7 |
| 20260903125412 | 73 | 209 | 2.0 | 5.0 | 0.00 | 0.00 | 0.00 | 99 | 1017.7 |
| 20260903124410 | 73 | 211 | 3.0 | 8.0 | 0.00 | 0.00 | 0.00 | 99 | 1017.3 |
| 20260903123407 | 72 | 232 | 6.0 | 9.0 | 0.00 | 0.00 | 0.00 | 99 | 1017.7 |
| 20260903122407 | 71 | 226 | 3.0 | 9.0 | 0.00 | 0.00 | 0.00 | 99 | 1017.3 |
| 20260903121408 | 71 | 121 | 2.0 | 4.0 | 0.00 | 0.00 | 0.00 | 99 | 1016.7 |
| 20260903120410 | 71 | 231 | 2.0 | 5.0 | 0.00 | 0.00 | 0.00 | 99 | 1018.0 |
| 20260903120326 | 71 | 184 | 2.0 | 5.0 | 0.00 | 0.00 | 0.00 | 99 | 1019.0 |
| 20260903114409 | 71 | 57 | 0.0 | 5.0 | 0.00 | 0.00 | 0.00 | 99 | 1019.0 |
| 20260903113408 | 71 | 180 | 1.0 | 4.0 | 0.00 | 0.00 | 0.00 | 99 | 1019.0 |
| 20260903112406 | 71 | 156 | 2.0 | 4.0 | 0.00 | 0.00 | 0.00 | 99 | 1019.4 |
| 20260903111409 | 71 | 238 | 0.0 | 2.0 | 0.00 | 0.00 | 0.00 | 99 | 1019.4 |
| 20260903110431 | 71 | 121 | 0.0 | 3.0 | 0.00 | 0.00 | 0.00 | 99 | 1019.4 |
| 20260903105406 | 71 | 228 | 2.0 | 3.0 | 0.00 | 0.00 | 0.00 | 99 | 1019.0 |
| 20260903104406 | 71 | 222 | 0.0 | 4.0 | 0.00 | 0.00 | 0.00 | 99 | 1019.0 |
| 20260903103406 | 71 | 122 | 0.0 | 5.0 | 0.00 | 0.00 | 0.00 | 99 | 1018.4 |
| 20260903102406 | 71 | 212 | 3.0 | 4.0 | 0.00 | 0.00 | 0.00 | 99 | 1018.7 |
| 20260903102332 | 71 | 80 | 0.0 | 5.0 | 0.00 | 0.00 | 0.00 | 99 | 1019.0 |